Itutinga, Brazil
Current Conditions -  °F | °C
As of 1:00 PM on Saturday 20 Dec 2014 (Local Time) from SBBQ Reporting Station
Broken Clouds Broken Clouds  
Wind Chill: 79°   Ceiling: 3000
Heat Index: 81°   Visibility: 6mi
Dew Point: 64°   Wind: 10mph
Humidity: 61%   Direction: 300°WNW
Pressure: 30.09"   Gusts: NA
Location:  21.3°S, 44.66°W
Report Text: SBBQ 201500Z 30009KT 9999 BKN030 26/18 Q1019
Loading
Personal Weather Stations






























Interactive Weather Map New forecast layout! Learn more

10-Day Weather Forecast

Advertisements
Track Severe Weather on mobile